createdAt,value
2022-09-28T00:02:14.827Z,99107.34
2022-09-28T00:04:41.846Z,99100.34
2022-09-28T00:07:08.534Z,99092.44
2022-09-28T00:09:35.245Z,99096.06
2022-09-28T00:12:01.949Z,99098.78
2022-09-28T00:14:28.684Z,99096.19
2022-09-28T00:16:55.399Z,99096.25
2022-09-28T00:19:22.086Z,99093.63
2022-09-28T00:21:48.815Z,99096.38
2022-09-28T00:24:15.741Z,99092.84
2022-09-28T00:26:51.624Z,99086.78
2022-09-28T00:29:24.320Z,99087.66
2022-09-28T00:31:52.502Z,99083.38
2022-09-28T00:34:19.690Z,99073.69
2022-09-28T00:36:46.698Z,99078.19
2022-09-28T00:39:14.641Z,99075.53
2022-09-28T00:41:41.889Z,99072.03
2022-09-28T00:44:26.818Z,99073.00
2022-09-28T00:47:00.273Z,99065.09
2022-09-28T00:49:38.892Z,99061.66
2022-09-28T00:52:07.520Z,99059.13
2022-09-28T00:54:34.876Z,99066.19
2022-09-28T00:57:02.824Z,99058.31
2022-09-28T00:59:31.080Z,99050.47
2022-09-28T01:01:57.902Z,99053.19
2022-09-28T01:04:29.217Z,99053.25
2022-09-28T01:06:57.600Z,99050.72
2022-09-28T01:09:25.497Z,99049.03
2022-09-28T01:11:52.201Z,99036.72
2022-09-28T01:14:20.614Z,99041.22
2022-09-28T01:17:12.035Z,99032.44
2022-09-28T01:19:55.154Z,99036.06
2022-09-28T01:22:36.299Z,99028.25
2022-09-28T01:25:18.231Z,99027.47
2022-09-28T01:27:51.367Z,99019.63
2022-09-28T01:30:19.230Z,99020.56
2022-09-28T01:32:55.163Z,99024.19
2022-09-28T01:35:44.496Z,99010.09
2022-09-28T01:38:17.720Z,99011.94
2022-09-28T01:40:45.288Z,99003.16
2022-09-28T01:43:23.048Z,98997.00
2022-09-28T01:46:02.466Z,98999.66
2022-09-28T01:48:37.177Z,99007.69
2022-09-28T01:51:09.345Z,98996.22
2022-09-28T01:53:39.302Z,98993.56
2022-09-28T01:56:12.473Z,98994.47
2022-09-28T01:58:49.337Z,98994.47
2022-09-28T02:01:39.672Z,98996.22
2022-09-28T02:04:16.851Z,98994.47
2022-09-28T02:07:02.734Z,98985.63
2022-09-28T02:09:36.112Z,98982.94
2022-09-28T02:12:13.571Z,98983.78
2022-09-28T02:14:41.245Z,98982.81
2022-09-28T02:17:09.674Z,98983.63
2022-09-28T02:19:36.427Z,98983.53
2022-09-28T02:22:23.385Z,98976.41
2022-09-28T02:24:56.527Z,98971.03
2022-09-28T02:27:32.409Z,98978.91
2022-09-28T02:29:59.099Z,98977.06
2022-09-28T02:32:26.948Z,98967.25
2022-09-28T02:34:55.260Z,98971.53
2022-09-28T02:37:21.956Z,98967.06
2022-09-28T02:39:48.678Z,98967.81
2022-09-28T02:42:28.207Z,98971.28
2022-09-28T02:45:21.541Z,98972.97
2022-09-28T02:48:35.963Z,98965.03
2022-09-28T02:52:17.381Z,98963.19
2022-09-28T02:54:54.428Z,98959.75
2022-09-28T02:57:48.297Z,98963.19
2022-09-28T03:00:18.090Z,98953.53
2022-09-28T03:03:00.393Z,98961.47
2022-09-28T03:05:37.922Z,98955.31
2022-09-28T03:08:24.672Z,98952.59
2022-09-28T03:10:57.858Z,98952.59
2022-09-28T03:13:25.161Z,98955.25
2022-09-28T03:15:52.057Z,98954.34
2022-09-28T03:18:18.767Z,98954.31
2022-09-28T03:20:45.488Z,98952.53
2022-09-28T03:23:24.296Z,98950.69
2022-09-28T03:25:51.702Z,98935.66
2022-09-28T03:28:18.475Z,98942.66
2022-09-28T03:30:45.324Z,98945.31
2022-09-28T03:33:12.049Z,98943.56
2022-09-28T03:35:39.003Z,98942.66
2022-09-28T03:38:05.705Z,98945.31
2022-09-28T03:40:32.514Z,98941.72
2022-09-28T03:43:00.941Z,98939.06
2022-09-28T03:45:27.755Z,98939.16
2022-09-28T03:47:54.608Z,98936.44
2022-09-28T03:50:21.307Z,98944.34
2022-09-28T03:52:48.019Z,98940.81
2022-09-28T03:55:14.727Z,98938.16
2022-09-28T03:57:41.400Z,98936.38
2022-09-28T04:00:09.261Z,98931.94
2022-09-28T04:02:36.054Z,98927.47
2022-09-28T04:05:02.768Z,98927.47
2022-09-28T04:07:31.260Z,98925.66
2022-09-28T04:09:58.143Z,98925.66
2022-09-28T04:12:24.836Z,98929.22
2022-09-28T04:14:51.549Z,98920.34
2022-09-28T04:17:18.254Z,98922.13
2022-09-28T04:19:44.992Z,98920.34
2022-09-28T04:22:11.695Z,98923.00
2022-09-28T04:24:38.995Z,98915.00
2022-09-28T04:27:24.385Z,98917.59
2022-09-28T04:29:51.076Z,98916.69
2022-09-28T04:32:17.810Z,98921.09
2022-09-28T04:34:44.657Z,98914.00
2022-09-28T04:37:11.447Z,98921.88
2022-09-28T04:39:38.213Z,98913.94
2022-09-28T04:42:05.488Z,98913.03
2022-09-28T04:44:32.175Z,98908.63
2022-09-28T04:47:04.230Z,98910.44
2022-09-28T04:49:31.870Z,98912.22
2022-09-28T04:52:01.258Z,98913.13
2022-09-28T04:54:28.036Z,98911.38
2022-09-28T04:56:55.385Z,98908.78
2022-09-28T04:59:22.086Z,98907.94
2022-09-28T05:01:49.408Z,98912.38
2022-09-28T05:04:16.215Z,98908.84
2022-09-28T05:06:42.909Z,98902.72
2022-09-28T05:09:09.649Z,98904.44
2022-09-28T05:11:36.382Z,98910.72
2022-09-28T05:14:03.154Z,98911.63
2022-09-28T05:16:33.613Z,98904.63
2022-09-28T05:19:00.337Z,98906.38
2022-09-28T05:21:27.901Z,98911.66
2022-09-28T05:23:56.543Z,98906.38
2022-09-28T05:26:23.313Z,98906.38
2022-09-28T05:28:50.762Z,98903.69
2022-09-28T05:31:17.540Z,98904.56
2022-09-28T05:33:44.312Z,98900.97
2022-09-28T05:36:11.176Z,98902.78
2022-09-28T05:38:37.970Z,98905.44
2022-09-28T05:41:07.042Z,98893.88
2022-09-28T05:43:33.966Z,98900.97
2022-09-28T05:46:00.791Z,98895.66
2022-09-28T05:48:28.232Z,98902.72
2022-09-28T05:50:54.943Z,98897.47
2022-09-28T05:53:21.768Z,98895.66
2022-09-28T05:55:48.618Z,98902.78
2022-09-28T05:58:15.421Z,98897.53
2022-09-28T06:00:42.466Z,98895.75
2022-09-28T06:03:12.776Z,98896.66
2022-09-28T06:05:40.173Z,98898.38
2022-09-28T06:08:08.583Z,98900.16
2022-09-28T06:10:35.412Z,98895.78
2022-09-28T06:13:02.503Z,98901.06
2022-09-28T06:15:31.485Z,98899.25
2022-09-28T06:17:59.721Z,98897.53
2022-09-28T06:20:28.649Z,98901.91
2022-09-28T06:22:55.376Z,98908.91
2022-09-28T06:25:23.202Z,98911.53
2022-09-28T06:27:56.832Z,98902.72
2022-09-28T06:30:27.007Z,98903.53
2022-09-28T06:32:55.333Z,98907.94
2022-09-28T06:35:22.986Z,98911.38
2022-09-28T06:37:49.693Z,98908.69
2022-09-28T06:40:16.519Z,98914.88
2022-09-28T06:42:43.569Z,98907.78
2022-09-28T06:45:11.019Z,98912.94
2022-09-28T06:47:38.052Z,98909.44
2022-09-28T06:50:12.028Z,98919.97
2022-09-28T06:52:38.750Z,98908.44
2022-09-28T06:55:06.316Z,98919.00
2022-09-28T06:57:33.035Z,98914.59
2022-09-28T06:59:59.796Z,98925.09
2022-09-28T07:02:26.553Z,98917.03
2022-09-28T07:04:53.269Z,98924.91
2022-09-28T07:07:19.996Z,98923.03
2022-09-28T07:09:51.294Z,98921.22
2022-09-28T07:12:20.173Z,98921.13
2022-09-28T07:14:48.356Z,98925.44
2022-09-28T07:17:15.787Z,98935.06
2022-09-28T07:19:42.600Z,98926.13
2022-09-28T07:22:09.285Z,98924.19
2022-09-28T07:24:36.001Z,98930.22
2022-09-28T07:27:05.555Z,98934.53
2022-09-28T07:29:32.371Z,98937.91
2022-09-28T07:31:59.661Z,98939.53
2022-09-28T07:34:26.389Z,98936.81
2022-09-28T07:36:58.825Z,98941.16
2022-09-28T07:39:25.521Z,98943.75
2022-09-28T07:41:54.421Z,98950.75
2022-09-28T07:44:23.569Z,98950.75
2022-09-28T07:46:50.585Z,98951.66
2022-09-28T07:49:19.201Z,98943.66
2022-09-28T07:51:46.307Z,98948.09
2022-09-28T07:54:13.057Z,98948.09
2022-09-28T07:56:39.741Z,98957.84
2022-09-28T07:59:06.694Z,98955.16
2022-09-28T08:01:33.488Z,98956.88
2022-09-28T08:04:00.262Z,98963.97
2022-09-28T08:06:27.083Z,98963.13
2022-09-28T08:08:56.334Z,98963.00
2022-09-28T08:11:23.081Z,98967.41
2022-09-28T08:13:51.451Z,98970.84
2022-09-28T08:16:19.398Z,98969.03
2022-09-28T08:18:48.851Z,98967.13
2022-09-28T08:21:34.276Z,98981.16
2022-09-28T08:24:01.191Z,98979.38
2022-09-28T08:26:29.108Z,98984.63
2022-09-28T08:28:55.887Z,98982.78
2022-09-28T08:31:22.785Z,98983.72
2022-09-28T08:33:54.296Z,98984.53
2022-09-28T08:36:21.167Z,98989.84
2022-09-28T08:38:47.923Z,98990.72
2022-09-28T08:41:36.810Z,98988.09
2022-09-28T08:44:15.193Z,98992.59
2022-09-28T08:46:47.773Z,98992.63
2022-09-28T08:49:29.693Z,98998.81
2022-09-28T08:52:05.337Z,99000.59
2022-09-28T08:54:48.775Z,99002.38
2022-09-28T08:57:16.411Z,99003.25
2022-09-28T08:59:53.290Z,99011.06
2022-09-28T09:02:33.739Z,99010.03
2022-09-28T09:05:03.409Z,99014.44
2022-09-28T09:07:46.916Z,99001.22
2022-09-28T09:10:28.611Z,99013.56
2022-09-28T09:13:03.392Z,99017.91
2022-09-28T09:15:48.837Z,99021.38
2022-09-28T09:18:57.536Z,99020.41
2022-09-28T09:21:42.156Z,99015.94
2022-09-28T09:24:27.371Z,99020.34
2022-09-28T09:27:19.362Z,99026.50
2022-09-28T09:30:03.585Z,99022.94
2022-09-28T09:32:57.050Z,99027.34
2022-09-28T09:35:52.845Z,99044.25
2022-09-28T09:38:34.380Z,99035.56
2022-09-28T09:41:26.273Z,99030.47
2022-09-28T09:44:26.735Z,99039.47
2022-09-28T09:46:56.836Z,99044.81
2022-09-28T09:49:28.378Z,99046.47
2022-09-28T09:51:57.911Z,99045.59
2022-09-28T09:54:56.135Z,99050.84
2022-09-28T09:57:27.149Z,99063.94
2022-09-28T09:59:54.905Z,99047.91
2022-09-28T10:02:28.040Z,99054.84
2022-09-28T10:05:02.764Z,99054.66
2022-09-28T10:07:43.130Z,99063.28
2022-09-28T10:10:32.197Z,99066.59
2022-09-28T10:12:58.901Z,99061.09
2022-09-28T10:15:27.906Z,99057.25
2022-09-28T10:17:55.944Z,99067.50
2022-09-28T10:20:23.159Z,99064.63
2022-09-28T10:22:56.477Z,99062.47
2022-09-28T10:25:23.820Z,99058.69
2022-09-28T10:27:52.589Z,99062.94
2022-09-28T10:30:25.358Z,99059.28
2022-09-28T10:32:55.411Z,99070.75
2022-09-28T10:35:29.962Z,99070.50
2022-09-28T10:38:03.235Z,99080.00
2022-09-28T10:40:46.391Z,99068.28
2022-09-28T10:43:23.473Z,99069.84
2022-09-28T10:46:01.729Z,99071.59
2022-09-28T10:48:31.128Z,99069.84
2022-09-28T10:51:04.890Z,99075.97
2022-09-28T10:53:31.910Z,99083.13
2022-09-28T10:56:04.227Z,99074.47
2022-09-28T10:58:42.061Z,99081.72
2022-09-28T11:01:11.299Z,99079.22
2022-09-28T11:04:01.605Z,99089.25
2022-09-28T11:06:30.565Z,99093.97
2022-09-28T11:08:59.877Z,99089.72
2022-09-28T11:11:27.171Z,99099.59
2022-09-28T11:13:56.362Z,99101.63
2022-09-28T11:16:32.008Z,99095.84
2022-09-28T11:19:04.175Z,99100.56
2022-09-28T11:21:40.900Z,99098.06
2022-09-28T11:24:27.043Z,99108.78
2022-09-28T11:26:57.908Z,99112.47
2022-09-28T11:29:24.598Z,99121.34
2022-09-28T11:31:51.542Z,99112.66
2022-09-28T11:34:31.352Z,99118.06
2022-09-28T11:38:05.829Z,99119.25
2022-09-28T11:40:47.945Z,99126.53
2022-09-28T11:43:26.382Z,99124.78
2022-09-28T11:46:08.843Z,99123.88
2022-09-28T11:48:50.047Z,99116.81
2022-09-28T11:51:22.601Z,99128.28
2022-09-28T11:53:55.748Z,99130.94
2022-09-28T11:56:36.136Z,99122.91
2022-09-28T11:59:16.827Z,99132.56
2022-09-28T12:01:57.401Z,99135.19
2022-09-28T12:04:28.141Z,99132.56
2022-09-28T12:07:04.120Z,99139.63
2022-09-28T12:09:45.713Z,99141.41
2022-09-28T12:12:36.351Z,99148.50
2022-09-28T12:15:12.826Z,99141.44
2022-09-28T12:17:43.582Z,99145.03
2022-09-28T12:20:19.163Z,99146.84
2022-09-28T12:23:08.222Z,99150.41
2022-09-28T12:25:41.695Z,99153.91
2022-09-28T12:28:33.726Z,99156.50
2022-09-28T12:31:08.710Z,99153.97
2022-09-28T12:33:36.087Z,99155.00
2022-09-28T12:36:09.802Z,99154.25
2022-09-28T12:39:18.936Z,99148.97
2022-09-28T12:41:57.549Z,99153.31
2022-09-28T12:44:59.823Z,99157.72
2022-09-28T12:47:35.481Z,99158.53
2022-09-28T12:53:39.096Z,99165.53
2022-09-28T12:56:28.659Z,99161.13
2022-09-28T12:59:10.501Z,99159.41
2022-09-28T13:01:44.072Z,99162.19
2022-09-28T13:04:28.294Z,99168.47
2022-09-28T13:07:01.460Z,99169.38
2022-09-28T13:09:34.035Z,99165.00
2022-09-28T13:12:19.118Z,99169.50
2022-09-28T13:14:57.739Z,99167.75
2022-09-28T13:17:45.256Z,99171.28
2022-09-28T13:20:26.469Z,99165.09
2022-09-28T13:23:05.397Z,99166.72
2022-09-28T13:25:34.129Z,99167.50
2022-09-28T13:28:05.431Z,99164.69
2022-09-28T13:30:33.947Z,99168.19
2022-09-28T13:33:03.216Z,99164.59
2022-09-28T13:35:30.350Z,99167.25
2022-09-28T13:38:16.099Z,99168.09
2022-09-28T13:41:04.313Z,99166.97
2022-09-28T13:43:49.897Z,99165.09
2022-09-28T13:46:34.950Z,99161.31
2022-09-28T13:49:18.325Z,99167.41
2022-09-28T13:51:55.431Z,99165.47
2022-09-28T13:54:43.953Z,99170.47
2022-09-28T13:57:16.996Z,99171.97
2022-09-28T14:00:08.776Z,99176.25
2022-09-28T14:03:22.038Z,99179.66
2022-09-28T14:06:28.528Z,99178.69
2022-09-28T14:09:13.571Z,99179.38
2022-09-28T14:11:43.447Z,99176.63
2022-09-28T14:14:14.170Z,99174.69
2022-09-28T14:16:44.441Z,99176.22
2022-09-28T14:19:26.814Z,99183.19
2022-09-28T14:22:07.916Z,99180.41
2022-09-28T14:24:53.432Z,99182.16
2022-09-28T14:27:35.355Z,99188.28
2022-09-28T14:30:10.990Z,99182.09
2022-09-28T14:32:41.362Z,99186.66
2022-09-28T14:35:19.546Z,99197.38
2022-09-28T14:38:07.738Z,99192.06
2022-09-28T14:41:18.229Z,99202.63
2022-09-28T14:43:45.094Z,99182.97
2022-09-28T14:46:11.948Z,99197.03
2022-09-28T14:48:48.841Z,99189.75
2022-09-28T14:51:41.897Z,99202.06
2022-09-28T14:54:11.630Z,99193.19
2022-09-28T14:57:08.961Z,99195.88
2022-09-28T14:59:43.566Z,99200.31
2022-09-28T15:02:32.910Z,99197.81
2022-09-28T15:05:14.975Z,99207.69
2022-09-28T15:07:51.661Z,99204.31
2022-09-28T15:10:34.696Z,99209.03
2022-09-28T15:13:20.841Z,99212.69
2022-09-28T15:15:54.183Z,99209.16
2022-09-28T15:18:33.259Z,99208.28
2022-09-28T15:21:00.188Z,99209.22
2022-09-28T15:23:41.233Z,99211.88
2022-09-28T15:26:21.095Z,99211.00
2022-09-28T15:28:47.885Z,99207.50
2022-09-28T15:31:20.140Z,99211.09
2022-09-28T15:34:05.834Z,99217.41
2022-09-28T15:36:38.913Z,99215.66
2022-09-28T15:39:12.924Z,99220.97
2022-09-28T15:41:42.028Z,99214.75
2022-09-28T15:44:29.455Z,99224.47
2022-09-28T15:47:15.773Z,99219.22
2022-09-28T15:49:59.994Z,99224.53
2022-09-28T15:52:37.380Z,99237.81
2022-09-28T15:55:17.277Z,99225.47
2022-09-28T15:57:44.220Z,99228.13
2022-09-28T16:00:29.719Z,99228.03
2022-09-28T16:03:23.079Z,99235.09
2022-09-28T16:05:50.879Z,99236.78
2022-09-28T16:08:24.897Z,99234.97
2022-09-28T16:11:22.139Z,99234.09
2022-09-28T16:14:18.702Z,99241.16
2022-09-28T16:16:50.367Z,99240.28
2022-09-28T16:19:25.649Z,99247.34
2022-09-28T16:21:59.856Z,99243.84
2022-09-28T16:24:32.308Z,99252.69
2022-09-28T16:27:02.554Z,99247.38
2022-09-28T16:29:36.232Z,99246.59
2022-09-28T16:32:38.209Z,99246.63
2022-09-28T16:35:10.882Z,99249.38
2022-09-28T16:37:38.030Z,99254.75
2022-09-28T16:40:04.994Z,99253.00
2022-09-28T16:42:31.806Z,99260.09
2022-09-28T16:44:58.582Z,99255.72
2022-09-28T16:47:25.367Z,99264.53
2022-09-28T16:49:52.132Z,99260.16
2022-09-28T16:52:38.825Z,99261.03
2022-09-28T16:58:04.930Z,99256.63
2022-09-28T17:00:32.445Z,99259.38
2022-09-28T17:02:59.333Z,99264.75
2022-09-28T17:05:26.227Z,99265.63
2022-09-28T17:08:03.662Z,99273.59
2022-09-28T17:11:02.130Z,99263.00
2022-09-28T17:13:36.022Z,99271.00
2022-09-28T17:16:11.027Z,99275.44
2022-09-28T17:18:39.022Z,99279.94
2022-09-28T17:21:09.980Z,99278.19
2022-09-28T17:23:36.948Z,99280.84
2022-09-28T17:26:04.222Z,99275.56
2022-09-28T17:28:36.003Z,99286.19
2022-09-28T17:31:03.890Z,99280.00
2022-09-28T17:33:30.741Z,99289.75
2022-09-28T17:36:01.853Z,99295.94
2022-09-28T17:38:31.069Z,99288.88
2022-09-28T17:40:57.926Z,99300.44
2022-09-28T17:43:24.746Z,99300.44
2022-09-28T17:45:51.519Z,99301.31
2022-09-28T17:48:21.746Z,99294.28
2022-09-28T17:50:48.512Z,99307.59
2022-09-28T17:53:15.290Z,99305.84
2022-09-28T17:55:43.006Z,99311.16
2022-09-28T17:58:18.348Z,99307.69
2022-09-28T18:00:49.874Z,99317.41
2022-09-28T18:03:21.787Z,99314.78
2022-09-28T18:05:50.768Z,99313.94
2022-09-28T18:08:19.249Z,99321.06
2022-09-28T18:10:49.398Z,99323.66
2022-09-28T18:13:16.450Z,99323.66
2022-09-28T18:15:43.312Z,99329.03
2022-09-28T18:18:10.367Z,99327.22
2022-09-28T18:20:37.554Z,99325.50
2022-09-28T18:23:07.357Z,99329.94
2022-09-28T18:25:37.908Z,99329.94
2022-09-28T18:28:09.886Z,99329.94
2022-09-28T18:30:40.233Z,99332.63
2022-09-28T18:33:07.785Z,99330.88
2022-09-28T18:35:35.513Z,99330.00
2022-09-28T18:38:05.309Z,99336.19
2022-09-28T18:40:33.789Z,99329.19
2022-09-28T18:43:02.910Z,99328.31
2022-09-28T18:45:29.786Z,99341.56
2022-09-28T18:47:57.611Z,99349.53
2022-09-28T18:50:24.473Z,99348.69
2022-09-28T18:52:51.260Z,99349.63
2022-09-28T18:55:18.076Z,99347.91
2022-09-28T18:57:46.350Z,99353.22
2022-09-28T19:00:15.141Z,99351.47
2022-09-28T19:02:42.434Z,99350.59
2022-09-28T19:05:09.629Z,99347.09
2022-09-28T19:07:36.456Z,99357.72
2022-09-28T19:10:03.512Z,99360.44
2022-09-28T19:12:30.552Z,99354.28
2022-09-28T19:14:58.626Z,99363.13
2022-09-28T19:17:25.437Z,99362.25
2022-09-28T19:19:52.262Z,99364.94
2022-09-28T19:22:18.983Z,99362.34
2022-09-28T19:24:53.183Z,99365.00
2022-09-28T19:27:19.962Z,99371.22
2022-09-28T19:29:46.748Z,99371.22
2022-09-28T19:32:16.685Z,99374.78
2022-09-28T19:34:43.514Z,99366.00
2022-09-28T19:37:10.302Z,99370.44
2022-09-28T19:39:37.224Z,99367.81
2022-09-28T19:42:04.160Z,99370.47
2022-09-28T19:44:32.353Z,99378.44
2022-09-28T19:47:07.007Z,99386.41
2022-09-28T19:49:38.704Z,99385.53
2022-09-28T19:52:15.810Z,99381.16
2022-09-28T19:54:57.315Z,99385.59
2022-09-28T19:57:27.641Z,99389.16
2022-09-28T19:59:59.322Z,99383.00
2022-09-28T20:02:28.757Z,99381.28
2022-09-28T20:04:55.582Z,99398.13
2022-09-28T20:07:22.271Z,99394.69
2022-09-28T20:09:48.971Z,99397.38
2022-09-28T20:12:15.705Z,99393.84
2022-09-28T20:14:42.411Z,99396.53
2022-09-28T20:17:09.328Z,99404.59
2022-09-28T20:19:36.085Z,99401.03
2022-09-28T20:22:03.441Z,99394.00
2022-09-28T20:24:31.020Z,99400.28
2022-09-28T20:26:57.990Z,99400.31
2022-09-28T20:29:24.830Z,99403.94
2022-09-28T20:31:51.992Z,99410.19
2022-09-28T20:34:18.967Z,99405.84
2022-09-28T20:36:45.695Z,99399.75
2022-09-28T20:39:12.886Z,99396.31
2022-09-28T20:41:40.179Z,99399.03
2022-09-28T20:44:07.404Z,99407.88
2022-09-28T20:46:38.159Z,99406.22
2022-09-28T20:49:05.389Z,99408.13
2022-09-28T20:51:32.395Z,99412.59
2022-09-28T20:53:59.613Z,99406.47
2022-09-28T20:56:31.029Z,99406.66
2022-09-28T20:58:57.789Z,99405.81
2022-09-28T21:01:29.941Z,99416.50
2022-09-28T21:03:58.538Z,99413.94
2022-09-28T21:06:30.807Z,99422.91
2022-09-28T21:08:58.201Z,99423.00
2022-09-28T21:11:26.043Z,99422.22
2022-09-28T21:13:54.387Z,99417.91
2022-09-28T21:16:21.333Z,99423.28
2022-09-28T21:18:48.062Z,99424.28
2022-09-28T21:21:16.689Z,99425.22
2022-09-28T21:23:44.844Z,99431.50
2022-09-28T21:26:14.495Z,99434.25
2022-09-28T21:28:42.153Z,99433.44
2022-09-28T21:31:10.809Z,99435.31
2022-09-28T21:33:37.846Z,99433.66
2022-09-28T21:36:06.606Z,99428.41
2022-09-28T21:38:33.461Z,99435.56
2022-09-28T21:41:00.285Z,99441.81
2022-09-28T21:43:28.873Z,99446.31
2022-09-28T21:45:56.232Z,99447.28
2022-09-28T21:48:24.609Z,99440.28
2022-09-28T21:50:58.249Z,99448.31
2022-09-28T21:53:26.603Z,99449.19
2022-09-28T21:55:53.888Z,99447.53
2022-09-28T21:58:23.356Z,99447.53
2022-09-28T22:01:01.260Z,99454.66
2022-09-28T22:03:28.694Z,99452.91
2022-09-28T22:05:55.469Z,99450.28
2022-09-28T22:08:22.533Z,99455.53
2022-09-28T22:11:02.369Z,99452.03
2022-09-28T22:13:30.132Z,99445.84
2022-09-28T22:16:00.298Z,99440.56
2022-09-28T22:18:28.856Z,99449.41
2022-09-28T22:21:06.447Z,99447.69
2022-09-28T22:23:33.801Z,99447.69
2022-09-28T22:26:10.756Z,99444.09
2022-09-28T22:28:38.277Z,99441.50
2022-09-28T22:31:05.483Z,99448.56
2022-09-28T22:33:32.291Z,99447.69
2022-09-28T22:35:58.998Z,99445.94
2022-09-28T22:38:25.756Z,99452.03
2022-09-28T22:40:54.636Z,99452.03
2022-09-28T22:43:23.368Z,99453.72
2022-09-28T22:45:50.820Z,99465.16
2022-09-28T22:48:17.561Z,99463.38
2022-09-28T22:50:51.017Z,99456.25
2022-09-28T22:53:18.817Z,99468.56
2022-09-28T22:55:45.515Z,99457.94
2022-09-28T22:58:12.371Z,99461.44
2022-09-28T23:00:39.263Z,99461.44
2022-09-28T23:03:06.068Z,99462.31
2022-09-28T23:05:38.711Z,99458.72
2022-09-28T23:08:05.421Z,99465.78
2022-09-28T23:10:32.195Z,99467.53
2022-09-28T23:12:59.139Z,99460.44
2022-09-28T23:15:26.100Z,99455.13
2022-09-28T23:17:53.261Z,99460.38
2022-09-28T23:20:20.845Z,99452.44
2022-09-28T23:22:48.369Z,99457.72
2022-09-28T23:25:16.370Z,99452.34
2022-09-28T23:27:50.149Z,99453.22
2022-09-28T23:30:19.334Z,99455.00
2022-09-28T23:32:46.237Z,99461.16
2022-09-28T23:35:14.075Z,99455.84
2022-09-28T23:37:40.822Z,99457.59
2022-09-28T23:40:07.845Z,99454.06
2022-09-28T23:42:35.407Z,99461.06
2022-09-28T23:45:02.101Z,99461.94
2022-09-28T23:47:28.812Z,99454.88
2022-09-28T23:49:55.495Z,99453.97
2022-09-28T23:52:22.212Z,99455.72
2022-09-28T23:54:48.937Z,99449.50
2022-09-28T23:57:15.697Z,99459.19
2022-09-28T23:59:42.447Z,99460.06
